createdAt,value
2022-12-11T00:02:02.073Z,47.50
2022-12-11T00:04:30.677Z,46.20
2022-12-11T00:06:58.362Z,55.50
2022-12-11T00:09:26.244Z,36.20
2022-12-11T00:11:54.140Z,34.50
2022-12-11T00:14:21.945Z,46.20
2022-12-11T00:16:49.814Z,58.00
2022-12-11T00:19:17.643Z,56.60
2022-12-11T00:21:45.602Z,45.40
2022-12-11T00:24:13.328Z,43.00
2022-12-11T00:26:41.049Z,23.20
2022-12-11T00:29:14.368Z,38.00
2022-12-11T00:31:42.421Z,28.00
2022-12-11T00:34:12.124Z,50.90
2022-12-11T00:36:40.081Z,34.60
2022-12-11T00:39:07.930Z,57.70
2022-12-11T00:41:35.697Z,38.20
2022-12-11T00:44:03.665Z,34.10
2022-12-11T00:46:31.712Z,35.10
2022-12-11T00:48:59.394Z,42.60
2022-12-11T00:51:27.172Z,44.10
2022-12-11T00:53:54.891Z,35.40
2022-12-11T00:56:23.127Z,34.30
2022-12-11T00:58:51.082Z,46.50
2022-12-11T01:01:20.634Z,35.30
2022-12-11T01:03:48.852Z,23.70
2022-12-11T01:06:17.533Z,44.70
2022-12-11T01:08:45.614Z,40.60
2022-12-11T01:11:14.390Z,45.00
2022-12-11T01:13:42.623Z,42.60
2022-12-11T01:16:12.126Z,41.50
2022-12-11T01:18:40.020Z,35.30
2022-12-11T01:21:12.190Z,48.70
2022-12-11T01:23:40.315Z,42.60
2022-12-11T01:26:14.006Z,38.60
2022-12-11T01:28:41.932Z,42.90
2022-12-11T01:31:10.477Z,39.70
2022-12-11T01:33:39.018Z,44.60
2022-12-11T01:36:07.860Z,36.10
2022-12-11T01:38:35.899Z,39.90
2022-12-11T01:41:03.562Z,41.00
2022-12-11T01:43:31.408Z,37.50
2022-12-11T01:45:59.154Z,38.70
2022-12-11T01:48:31.556Z,43.40
2022-12-11T01:51:01.298Z,20.90
2022-12-11T01:53:30.915Z,36.30
2022-12-11T01:55:59.140Z,20.50
2022-12-11T01:58:29.652Z,42.40
2022-12-11T02:00:57.905Z,43.80
2022-12-11T02:03:25.688Z,43.00
2022-12-11T02:05:53.327Z,37.70
2022-12-11T02:08:21.487Z,36.60
2022-12-11T02:11:06.644Z,36.20
2022-12-11T02:13:41.090Z,35.50
2022-12-11T02:16:14.760Z,35.70
2022-12-11T02:18:48.273Z,33.00
2022-12-11T02:21:26.720Z,41.80
2022-12-11T02:24:06.824Z,37.80
2022-12-11T02:26:49.750Z,39.10
2022-12-11T02:29:20.064Z,36.60
2022-12-11T02:31:51.912Z,31.00
2022-12-11T02:34:29.811Z,33.00
2022-12-11T02:37:02.264Z,34.80
2022-12-11T02:39:31.716Z,32.10
2022-12-11T02:41:59.759Z,40.00
2022-12-11T02:44:29.619Z,33.40
2022-12-11T02:46:58.483Z,43.60
2022-12-11T02:49:27.964Z,47.20
2022-12-11T02:51:56.997Z,46.00
2022-12-11T02:54:26.964Z,39.60
2022-12-11T02:56:59.035Z,36.50
2022-12-11T02:59:37.068Z,41.00
2022-12-11T03:02:05.359Z,28.70
2022-12-11T03:04:34.208Z,35.60
2022-12-11T03:07:11.934Z,38.80
2022-12-11T03:09:40.150Z,38.40
2022-12-11T03:12:09.705Z,45.00
2022-12-11T03:14:39.297Z,37.40
2022-12-11T03:17:23.876Z,41.20
2022-12-11T03:19:51.557Z,45.70
2022-12-11T03:22:22.131Z,40.70
2022-12-11T03:25:00.779Z,37.20
2022-12-11T03:27:37.356Z,40.50
2022-12-11T03:30:10.380Z,30.20
2022-12-11T03:32:44.585Z,38.90
2022-12-11T03:35:15.132Z,29.10
2022-12-11T03:37:44.704Z,40.50
2022-12-11T03:40:16.069Z,35.60
2022-12-11T03:42:45.207Z,35.00
2022-12-11T03:45:14.084Z,43.90
2022-12-11T03:47:42.818Z,28.80
2022-12-11T03:50:12.273Z,38.10
2022-12-11T03:52:45.822Z,33.50
2022-12-11T03:55:15.963Z,29.70
2022-12-11T03:57:43.792Z,35.30
2022-12-11T04:00:13.792Z,30.10
2022-12-11T04:02:42.204Z,30.70
2022-12-11T04:05:10.618Z,31.00
2022-12-11T04:07:38.565Z,31.40
2022-12-11T04:10:06.316Z,41.80
2022-12-11T04:12:33.979Z,31.10
2022-12-11T04:15:01.863Z,27.70
2022-12-11T04:17:49.456Z,37.80
2022-12-11T04:20:36.390Z,38.30
2022-12-11T04:23:23.712Z,42.90
2022-12-11T04:25:51.491Z,26.50
2022-12-11T04:28:19.145Z,39.30
2022-12-11T04:30:50.292Z,24.20
2022-12-11T04:33:18.150Z,31.70
2022-12-11T04:35:46.003Z,36.60
2022-12-11T04:38:13.657Z,36.20
2022-12-11T04:40:41.334Z,30.40
2022-12-11T04:43:09.021Z,36.00
2022-12-11T04:45:36.737Z,22.70
2022-12-11T04:48:04.761Z,35.40
2022-12-11T04:50:32.433Z,30.40
2022-12-11T04:53:00.079Z,26.80
2022-12-11T04:55:27.927Z,29.40
2022-12-11T04:57:55.636Z,27.60
2022-12-11T05:00:23.287Z,28.00
2022-12-11T05:02:51.042Z,34.80
2022-12-11T05:05:18.926Z,27.80
2022-12-11T05:07:46.676Z,24.90
2022-12-11T05:10:14.377Z,36.10
2022-12-11T05:12:42.067Z,40.50
2022-12-11T05:15:10.317Z,36.30
2022-12-11T05:17:38.134Z,35.00
2022-12-11T05:20:06.115Z,21.40
2022-12-11T05:22:33.766Z,36.50
2022-12-11T05:25:01.507Z,37.10
2022-12-11T05:27:29.294Z,35.00
2022-12-11T05:29:59.510Z,27.30
2022-12-11T05:32:27.496Z,33.70
2022-12-11T05:34:56.025Z,36.00
2022-12-11T05:37:23.688Z,38.10
2022-12-11T05:39:51.361Z,30.80
2022-12-11T05:42:22.772Z,39.40
2022-12-11T05:44:53.183Z,32.80
2022-12-11T05:47:21.364Z,28.20
2022-12-11T05:49:49.049Z,28.10
2022-12-11T05:52:17.118Z,35.10
2022-12-11T05:54:44.932Z,31.50
2022-12-11T05:57:12.597Z,34.80
2022-12-11T05:59:40.261Z,37.60
2022-12-11T06:02:08.027Z,28.40
2022-12-11T06:04:35.845Z,28.20
2022-12-11T06:07:03.506Z,35.60
2022-12-11T06:09:31.161Z,42.30
2022-12-11T06:11:58.892Z,21.20
2022-12-11T06:14:26.928Z,25.90
2022-12-11T06:16:54.596Z,21.00
2022-12-11T06:19:22.550Z,35.30
2022-12-11T06:21:50.211Z,30.80
2022-12-11T06:24:17.920Z,30.40
2022-12-11T06:26:45.701Z,33.70
2022-12-11T06:29:13.393Z,37.40
2022-12-11T06:31:41.192Z,33.90
2022-12-11T06:34:11.246Z,41.10
2022-12-11T06:36:38.922Z,29.10
2022-12-11T06:39:06.619Z,29.90
2022-12-11T06:41:34.460Z,24.10
2022-12-11T06:44:02.388Z,28.60
2022-12-11T06:46:30.071Z,33.90
2022-12-11T06:48:57.790Z,28.00
2022-12-11T06:51:25.537Z,24.60
2022-12-11T06:53:54.467Z,31.90
2022-12-11T06:56:22.813Z,25.40
2022-12-11T06:58:51.993Z,18.70
2022-12-11T07:01:24.676Z,24.60
2022-12-11T07:03:53.597Z,33.10
2022-12-11T07:06:21.739Z,29.40
2022-12-11T07:08:49.576Z,32.80
2022-12-11T07:11:18.173Z,29.00
2022-12-11T07:13:46.678Z,25.60
2022-12-11T07:16:15.456Z,21.10
2022-12-11T07:18:46.093Z,26.10
2022-12-11T07:21:14.389Z,26.00
2022-12-11T07:23:42.296Z,27.90
2022-12-11T07:26:11.747Z,21.90
2022-12-11T07:28:40.041Z,21.50
2022-12-11T07:31:09.667Z,12.70
2022-12-11T07:33:37.395Z,28.40
2022-12-11T07:36:06.323Z,19.70
2022-12-11T07:38:34.162Z,25.80
2022-12-11T07:41:02.747Z,22.90
2022-12-11T07:43:30.609Z,25.50
2022-12-11T07:46:02.201Z,21.30
2022-12-11T07:48:30.362Z,15.20
2022-12-11T07:51:18.444Z,29.30
2022-12-11T07:53:47.748Z,31.00
2022-12-11T07:56:16.217Z,23.70
2022-12-11T07:58:44.167Z,19.50
2022-12-11T08:01:13.604Z,20.40
2022-12-11T08:03:42.176Z,23.90
2022-12-11T08:06:10.219Z,18.60
2022-12-11T08:08:38.413Z,24.70
2022-12-11T08:11:07.209Z,23.00
2022-12-11T08:13:35.358Z,19.80
2022-12-11T08:16:04.051Z,22.30
2022-12-11T08:18:32.888Z,23.40
2022-12-11T08:21:04.886Z,19.30
2022-12-11T08:23:32.610Z,25.10
2022-12-11T08:26:01.910Z,27.90
2022-12-11T08:28:29.747Z,18.00
2022-12-11T08:30:57.734Z,20.40
2022-12-11T08:33:25.915Z,22.10
2022-12-11T08:35:53.592Z,21.80
2022-12-11T08:38:25.385Z,22.90
2022-12-11T08:40:53.839Z,29.20
2022-12-11T08:43:21.807Z,20.10
2022-12-11T08:45:49.628Z,26.90
2022-12-11T08:48:17.876Z,23.30
2022-12-11T08:50:45.733Z,27.10
2022-12-11T08:53:13.609Z,36.80
2022-12-11T08:55:42.181Z,23.00
2022-12-11T08:58:10.365Z,22.90
2022-12-11T09:00:38.456Z,28.30
2022-12-11T09:03:11.218Z,20.40
2022-12-11T09:05:40.392Z,19.80
2022-12-11T09:08:08.104Z,22.00
2022-12-11T09:10:35.914Z,20.90
2022-12-11T09:13:03.689Z,17.40
2022-12-11T09:15:31.405Z,22.90
2022-12-11T09:17:59.294Z,22.80
2022-12-11T09:20:27.010Z,21.00
2022-12-11T09:22:54.880Z,22.00
2022-12-11T09:25:22.567Z,20.70
2022-12-11T09:27:50.557Z,17.80
2022-12-11T09:30:18.303Z,19.30
2022-12-11T09:32:46.256Z,21.30
2022-12-11T09:35:14.110Z,12.80
2022-12-11T09:37:41.924Z,22.10
2022-12-11T09:40:11.075Z,12.90
2022-12-11T09:42:50.055Z,19.40
2022-12-11T09:45:17.999Z,16.10
2022-12-11T09:47:47.277Z,24.00
2022-12-11T09:50:15.049Z,16.00
2022-12-11T09:52:46.405Z,9.70
2022-12-11T09:55:21.655Z,17.60
2022-12-11T09:58:08.121Z,14.10
2022-12-11T10:00:39.842Z,10.60
2022-12-11T10:03:20.729Z,17.50
2022-12-11T10:05:48.458Z,15.80
2022-12-11T10:08:28.658Z,16.70
2022-12-11T10:11:02.448Z,16.70
2022-12-11T10:13:46.763Z,15.30
2022-12-11T10:16:33.479Z,11.70
2022-12-11T10:19:01.367Z,13.70
2022-12-11T10:21:33.036Z,14.10
2022-12-11T10:24:02.066Z,17.10
2022-12-11T10:26:29.852Z,15.70
2022-12-11T10:28:59.265Z,32.30
2022-12-11T10:31:39.116Z,22.00
2022-12-11T10:34:11.717Z,33.40
2022-12-11T10:36:41.160Z,28.20
2022-12-11T10:39:16.317Z,35.40
2022-12-11T10:41:45.099Z,67.20
2022-12-11T10:44:29.401Z,23.20
2022-12-11T10:47:09.711Z,18.40
2022-12-11T10:49:38.646Z,23.20
2022-12-11T10:52:11.083Z,13.90
2022-12-11T10:54:44.310Z,22.70
2022-12-11T10:57:13.668Z,19.30
2022-12-11T10:59:46.408Z,26.00
2022-12-11T11:02:24.785Z,25.80
2022-12-11T11:04:53.497Z,24.30
2022-12-11T11:07:23.749Z,17.10
2022-12-11T11:10:02.722Z,35.30
2022-12-11T11:12:30.419Z,13.10
2022-12-11T11:15:11.918Z,26.20
2022-12-11T11:17:54.853Z,22.50
2022-12-11T11:20:25.622Z,17.90
2022-12-11T11:22:57.755Z,37.90
2022-12-11T11:25:26.578Z,23.40
2022-12-11T11:27:54.235Z,46.70
2022-12-11T11:30:32.322Z,33.90
2022-12-11T11:33:04.572Z,35.50
2022-12-11T11:35:32.964Z,22.90
2022-12-11T11:38:16.917Z,39.00
2022-12-11T11:40:48.337Z,38.30
2022-12-11T11:43:22.640Z,28.80
2022-12-11T11:46:02.140Z,24.10
2022-12-11T11:48:36.106Z,17.50
2022-12-11T11:51:08.178Z,26.70
2022-12-11T11:53:41.756Z,34.90
2022-12-11T11:56:23.522Z,33.70
2022-12-11T11:58:56.528Z,19.40
2022-12-11T12:01:24.220Z,37.90
2022-12-11T12:03:52.446Z,28.40
2022-12-11T12:06:30.073Z,32.90
2022-12-11T12:09:00.546Z,52.90
2022-12-11T12:12:00.690Z,42.10
2022-12-11T12:17:40.578Z,25.30
2022-12-11T12:20:17.851Z,22.90
2022-12-11T12:23:02.453Z,37.20
2022-12-11T12:25:45.811Z,37.30
2022-12-11T12:28:14.134Z,25.50
2022-12-11T12:31:02.061Z,34.30
2022-12-11T12:33:53.466Z,26.00
2022-12-11T12:36:30.044Z,26.90
2022-12-11T12:38:57.765Z,28.10
2022-12-11T12:41:44.215Z,27.60
2022-12-11T12:44:11.914Z,15.00
2022-12-11T12:46:58.408Z,25.20
2022-12-11T12:49:32.504Z,65.00
2022-12-11T12:52:00.567Z,25.30
2022-12-11T12:54:30.166Z,55.80
2022-12-11T12:56:58.767Z,18.90
2022-12-11T12:59:27.552Z,26.70
2022-12-11T13:02:02.041Z,21.00
2022-12-11T13:04:58.888Z,54.40
2022-12-11T13:07:32.250Z,25.60
2022-12-11T13:10:07.979Z,37.80
2022-12-11T13:12:45.742Z,12.70
2022-12-11T13:15:32.264Z,39.10
2022-12-11T13:18:01.479Z,11.50
2022-12-11T13:20:31.264Z,46.00
2022-12-11T13:23:10.476Z,14.50
2022-12-11T13:25:49.162Z,17.30
2022-12-11T13:28:28.338Z,35.50
2022-12-11T13:30:57.809Z,19.30
2022-12-11T13:33:25.940Z,17.70
2022-12-11T13:36:25.021Z,18.20
2022-12-11T13:38:58.661Z,29.10
2022-12-11T13:41:27.074Z,27.00
2022-12-11T13:43:55.547Z,69.90
2022-12-11T13:46:27.999Z,25.20
2022-12-11T13:49:00.806Z,50.60
2022-12-11T13:51:30.323Z,60.30
2022-12-11T13:54:04.375Z,55.30
2022-12-11T13:56:32.181Z,44.00
2022-12-11T13:59:00.107Z,29.60
2022-12-11T14:01:30.541Z,26.10
2022-12-11T14:04:01.127Z,65.20
2022-12-11T14:06:29.575Z,54.20
2022-12-11T14:08:59.430Z,45.10
2022-12-11T14:11:35.846Z,35.80
2022-12-11T14:14:06.976Z,167.80
2022-12-11T14:16:35.037Z,62.90
2022-12-11T14:19:05.307Z,49.00
2022-12-11T14:21:33.435Z,36.70
2022-12-11T14:24:03.480Z,64.20
2022-12-11T14:26:33.248Z,56.90
2022-12-11T14:29:01.054Z,59.50
2022-12-11T14:31:34.277Z,115.30
2022-12-11T14:34:07.413Z,8.80
2022-12-11T14:36:35.572Z,36.50
2022-12-11T14:39:10.520Z,44.30
2022-12-11T14:41:49.739Z,30.90
2022-12-11T14:44:18.803Z,69.80
2022-12-11T14:46:48.868Z,33.30
2022-12-11T14:49:20.157Z,104.70
2022-12-11T14:51:48.196Z,172.00
2022-12-11T14:54:42.529Z,137.20
2022-12-11T14:57:16.984Z,58.40
2022-12-11T14:59:46.059Z,50.40
2022-12-11T15:02:28.541Z,43.60
2022-12-11T15:05:02.781Z,58.60
2022-12-11T15:07:30.820Z,32.80
2022-12-11T15:09:58.567Z,36.70
2022-12-11T15:12:26.551Z,44.00
2022-12-11T15:14:54.526Z,41.50
2022-12-11T15:17:22.897Z,60.40
2022-12-11T15:20:09.731Z,38.40
2022-12-11T15:22:38.018Z,26.50
2022-12-11T15:25:06.195Z,32.60
2022-12-11T15:27:38.029Z,50.00
2022-12-11T15:30:18.018Z,26.50
2022-12-11T15:32:46.549Z,31.40
2022-12-11T15:35:25.317Z,23.10
2022-12-11T15:37:54.365Z,20.50
2022-12-11T15:40:22.313Z,27.30
2022-12-11T15:42:50.942Z,24.00
2022-12-11T15:45:20.698Z,23.50
2022-12-11T15:47:50.955Z,43.20
2022-12-11T15:50:21.705Z,82.00
2022-12-11T15:52:50.553Z,206.10
2022-12-11T15:55:19.212Z,357.70
2022-12-11T15:57:49.326Z,142.70
2022-12-11T16:00:21.280Z,45.40
2022-12-11T16:02:49.026Z,61.00
2022-12-11T16:05:17.847Z,53.00
2022-12-11T16:07:45.917Z,40.40
2022-12-11T16:10:15.965Z,38.10
2022-12-11T16:12:44.045Z,36.70
2022-12-11T16:15:15.290Z,42.30
2022-12-11T16:17:45.304Z,45.90
2022-12-11T16:20:13.873Z,44.50
2022-12-11T16:22:41.562Z,32.30
2022-12-11T16:25:09.582Z,75.00
2022-12-11T16:27:37.679Z,15.30
2022-12-11T16:30:05.818Z,31.90
2022-12-11T16:32:33.659Z,27.70
2022-12-11T16:35:01.585Z,46.90
2022-12-11T16:37:29.348Z,30.30
2022-12-11T16:39:57.041Z,27.00
2022-12-11T16:42:24.759Z,57.70
2022-12-11T16:44:52.555Z,38.80
2022-12-11T16:47:20.226Z,53.60
2022-12-11T16:49:48.005Z,26.50
2022-12-11T16:52:21.817Z,20.30
2022-12-11T16:54:50.028Z,20.60
2022-12-11T16:57:17.749Z,86.70
2022-12-11T16:59:47.206Z,36.60
2022-12-11T17:02:15.054Z,50.10
2022-12-11T17:04:42.907Z,36.60
2022-12-11T17:07:10.708Z,30.20
2022-12-11T17:09:38.717Z,43.30
2022-12-11T17:12:06.893Z,35.20
2022-12-11T17:14:34.700Z,71.50
2022-12-11T17:17:02.422Z,65.60
2022-12-11T17:19:30.652Z,51.20
2022-12-11T17:21:59.121Z,142.10
2022-12-11T17:24:26.913Z,157.90
2022-12-11T17:26:55.458Z,259.80
2022-12-11T17:29:23.346Z,96.70
2022-12-11T17:31:52.062Z,86.30
2022-12-11T17:34:20.113Z,21.50
2022-12-11T17:36:48.422Z,41.90
2022-12-11T17:39:16.661Z,24.90
2022-12-11T17:41:46.706Z,35.00
2022-12-11T17:44:14.545Z,25.70
2022-12-11T17:46:43.299Z,26.60
2022-12-11T17:49:11.241Z,27.00
2022-12-11T17:51:39.028Z,35.00
2022-12-11T17:54:06.862Z,22.90
2022-12-11T17:56:36.244Z,22.90
2022-12-11T17:59:04.084Z,28.60
2022-12-11T18:01:32.110Z,19.70
2022-12-11T18:04:01.819Z,32.40
2022-12-11T18:06:29.961Z,22.70
2022-12-11T18:08:58.226Z,34.30
2022-12-11T18:11:26.034Z,32.10
2022-12-11T18:13:54.342Z,19.10
2022-12-11T18:16:40.177Z,27.60
2022-12-11T18:19:08.549Z,21.80
2022-12-11T18:21:40.553Z,42.90
2022-12-11T18:24:08.922Z,55.70
2022-12-11T18:26:37.566Z,28.80
2022-12-11T18:29:05.635Z,36.80
2022-12-11T18:31:37.471Z,25.60
2022-12-11T18:34:08.534Z,26.00
2022-12-11T18:36:36.300Z,23.70
2022-12-11T18:39:04.029Z,22.00
2022-12-11T18:41:31.708Z,27.40
2022-12-11T18:44:01.970Z,27.40
2022-12-11T18:46:33.063Z,19.20
2022-12-11T18:49:01.251Z,24.70
2022-12-11T18:51:28.933Z,21.10
2022-12-11T18:53:57.019Z,29.00
2022-12-11T18:56:24.972Z,16.30
2022-12-11T18:58:52.859Z,16.60
2022-12-11T19:01:22.358Z,23.00
2022-12-11T19:03:51.482Z,19.10
2022-12-11T19:06:20.894Z,20.70
2022-12-11T19:08:48.810Z,21.80
2022-12-11T19:11:17.708Z,19.40
2022-12-11T19:13:46.126Z,29.30
2022-12-11T19:16:15.464Z,77.50
2022-12-11T19:18:43.752Z,50.50
2022-12-11T19:21:13.020Z,39.90
2022-12-11T19:23:41.558Z,38.80
2022-12-11T19:26:17.428Z,21.70
2022-12-11T19:28:45.536Z,30.70
2022-12-11T19:31:14.927Z,35.00
2022-12-11T19:33:43.414Z,26.30
2022-12-11T19:36:12.296Z,26.20
2022-12-11T19:38:40.596Z,17.50
2022-12-11T19:41:10.593Z,24.70
2022-12-11T19:43:38.577Z,16.00
2022-12-11T19:46:08.005Z,20.50
2022-12-11T19:48:37.522Z,18.50
2022-12-11T19:51:06.221Z,23.40
2022-12-11T19:53:34.526Z,19.10
2022-12-11T19:56:02.990Z,43.30
2022-12-11T19:58:30.897Z,64.50
2022-12-11T20:00:59.140Z,50.70
2022-12-11T20:03:27.760Z,29.50
2022-12-11T20:06:05.036Z,26.00
2022-12-11T20:08:44.515Z,17.50
2022-12-11T20:11:17.866Z,17.30
2022-12-11T20:13:47.282Z,20.90
2022-12-11T20:16:15.466Z,36.00
2022-12-11T20:18:43.248Z,32.20
2022-12-11T20:21:15.487Z,23.50
2022-12-11T20:23:43.949Z,34.70
2022-12-11T20:26:13.471Z,40.30
2022-12-11T20:28:41.394Z,74.80
2022-12-11T20:31:14.889Z,38.50
2022-12-11T20:33:46.036Z,24.30
2022-12-11T20:36:14.858Z,20.10
2022-12-11T20:38:43.388Z,19.30
2022-12-11T20:41:12.950Z,22.20
2022-12-11T20:43:40.896Z,44.50
2022-12-11T20:46:10.192Z,23.50
2022-12-11T20:48:39.570Z,20.30
2022-12-11T20:51:07.890Z,30.60
2022-12-11T20:53:36.911Z,28.40
2022-12-11T20:56:18.872Z,33.30
2022-12-11T20:58:46.736Z,19.40
2022-12-11T21:01:15.679Z,23.50
2022-12-11T21:03:43.866Z,30.90
2022-12-11T21:06:38.725Z,26.20
2022-12-11T21:09:08.021Z,28.70
2022-12-11T21:11:35.776Z,21.50
2022-12-11T21:14:03.791Z,18.20
2022-12-11T21:16:31.831Z,24.30
2022-12-11T21:18:59.708Z,20.70
2022-12-11T21:21:27.414Z,18.50
2022-12-11T21:23:55.180Z,16.70
2022-12-11T21:26:22.899Z,19.10
2022-12-11T21:28:50.771Z,18.60
2022-12-11T21:31:19.085Z,20.90
2022-12-11T21:33:47.619Z,17.40
2022-12-11T21:36:16.353Z,15.50
2022-12-11T21:38:44.658Z,14.60
2022-12-11T21:41:13.968Z,22.40
2022-12-11T21:44:03.253Z,20.80
2022-12-11T21:46:30.314Z,19.80
2022-12-11T21:48:58.050Z,18.40
2022-12-11T21:51:32.402Z,16.70
2022-12-11T21:54:05.275Z,15.80
2022-12-11T21:56:33.120Z,19.40
2022-12-11T21:59:01.625Z,10.90
2022-12-11T22:01:40.985Z,14.30
2022-12-11T22:04:09.958Z,19.30
2022-12-11T22:06:37.852Z,16.70
2022-12-11T22:09:06.551Z,19.30
2022-12-11T22:11:34.764Z,16.50
2022-12-11T22:14:02.989Z,14.80
2022-12-11T22:16:30.865Z,14.80
2022-12-11T22:18:58.862Z,15.90
2022-12-11T22:21:26.582Z,13.20
2022-12-11T22:23:55.307Z,17.50
2022-12-11T22:26:24.837Z,18.00
2022-12-11T22:28:53.096Z,18.30
2022-12-11T22:31:21.669Z,19.20
2022-12-11T22:33:50.093Z,15.60
2022-12-11T22:36:18.997Z,16.10
2022-12-11T22:38:47.267Z,13.60
2022-12-11T22:41:22.017Z,20.10
2022-12-11T22:43:50.400Z,16.40
2022-12-11T22:46:19.708Z,15.90
2022-12-11T22:48:47.706Z,13.20
2022-12-11T22:51:15.454Z,16.30
2022-12-11T22:53:43.357Z,16.80
2022-12-11T22:56:12.310Z,15.70
2022-12-11T22:58:40.309Z,8.80
2022-12-11T23:01:12.145Z,14.90
2022-12-11T23:03:40.533Z,20.70
2022-12-11T23:06:09.371Z,17.40
2022-12-11T23:08:37.273Z,11.90
2022-12-11T23:11:20.080Z,14.00
2022-12-11T23:13:47.831Z,18.00
2022-12-11T23:16:15.943Z,16.70
2022-12-11T23:18:43.820Z,13.10
2022-12-11T23:21:12.607Z,12.60
2022-12-11T23:23:40.339Z,18.10
2022-12-11T23:26:09.488Z,18.80
2022-12-11T23:28:37.796Z,15.50
2022-12-11T23:31:06.078Z,15.10
2022-12-11T23:33:33.837Z,15.60
2022-12-11T23:36:01.803Z,21.40
2022-12-11T23:38:29.586Z,16.90
2022-12-11T23:40:59.373Z,13.00
2022-12-11T23:43:27.238Z,14.10
2022-12-11T23:45:54.957Z,13.90
2022-12-11T23:48:22.728Z,13.40
2022-12-11T23:50:50.981Z,14.00
2022-12-11T23:53:18.745Z,20.40
2022-12-11T23:55:47.390Z,21.00
2022-12-11T23:58:15.692Z,16.90
